Time;durP1;ratioP1;P1;durP2;ratioP2;P2;SDS_P1;SDS_P2;PMS_P1;PMS_P2;Temp;Humidity;BMP_temperature;BMP_pressure;BME280_temperature;BME280_humidity;BME280_pressure;Samples;Min_cycle;Max_cycle;Signal;HPM_P1;HPM_P2
2023/04/18 00:01:37;;;;;;;16.42;11.43;;;;;;;9.93;73.56;98745.63;7384133;19;19954;-74
2023/04/18 00:04:03;;;;;;;16.65;9.85;;;;;;;9.90;73.59;98738.00;7388856;19;20344;-74
2023/04/18 00:06:31;;;;;;;15.13;10.50;;;;;;;9.88;73.72;98738.13;7384544;19;19922;-74
2023/04/18 00:08:58;;;;;;;20.00;12.85;;;;;;;9.91;73.67;98737.00;7388636;19;20298;-75
2023/04/18 00:11:25;;;;;;;17.98;11.85;;;;;;;9.84;73.40;98738.53;7381885;19;19922;-75
2023/04/18 00:13:52;;;;;;;15.63;11.50;;;;;;;9.85;73.58;98732.31;7386107;19;19939;-75
2023/04/18 00:16:19;;;;;;;16.15;10.38;;;;;;;9.88;73.56;98724.06;7383037;19;20022;-74
2023/04/18 00:18:47;;;;;;;15.38;10.55;;;;;;;9.85;73.58;98725.19;7383667;19;19928;-75
2023/04/18 00:21:15;;;;;;;17.10;11.75;;;;;;;9.84;73.48;98726.16;7381534;19;19922;-75
2023/04/18 00:23:42;;;;;;;16.15;10.93;;;;;;;9.75;72.87;98723.56;7382103;19;19929;-75
2023/04/18 00:26:09;;;;;;;16.45;10.43;;;;;;;9.75;73.49;98720.91;7388712;19;19914;-75
2023/04/18 00:28:36;;;;;;;17.27;11.25;;;;;;;9.75;73.51;98715.63;7380318;19;19919;-75
2023/04/18 00:31:02;;;;;;;16.38;11.20;;;;;;;9.76;73.58;98722.56;7383482;19;20273;-75
2023/04/18 00:33:30;;;;;;;17.08;11.32;;;;;;;9.78;73.64;98715.34;7380781;19;19929;-74
2023/04/18 00:35:57;;;;;;;16.45;11.48;;;;;;;9.79;73.67;98717.81;7384481;19;19982;-75
2023/04/18 00:38:23;;;;;;;17.13;10.75;;;;;;;9.80;73.27;98723.97;7379494;19;19922;-74
2023/04/18 00:40:50;;;;;;;15.85;12.25;;;;;;;9.79;72.84;98719.63;7383438;19;20305;-74
2023/04/18 00:43:17;;;;;;;17.23;11.63;;;;;;;9.77;72.82;98713.66;7383672;19;19919;-74
2023/04/18 00:45:44;;;;;;;16.83;12.38;;;;;;;9.83;73.33;98715.75;7380318;19;21342;-74
2023/04/18 00:48:10;;;;;;;16.00;10.90;;;;;;;9.88;73.32;98716.97;7386126;19;19933;-74
2023/04/18 00:50:39;;;;;;;15.45;10.65;;;;;;;9.85;72.92;98711.16;7375750;19;20344;-74
2023/04/18 00:53:09;;;;;;;15.57;10.43;;;;;;;9.87;73.52;98712.69;7380923;19;19918;-74
2023/04/18 00:55:37;;;;;;;13.32;8.50;;;;;;;9.91;73.38;98709.75;7381388;19;19918;-74
2023/04/18 00:58:05;;;;;;;16.05;9.43;;;;;;;9.93;73.16;98710.44;7382483;19;19975;-74
2023/04/18 01:00:32;;;;;;;17.05;10.65;;;;;;;9.93;73.54;98708.63;7379950;19;19926;-74
2023/04/18 01:02:58;;;;;;;17.63;9.65;;;;;;;9.93;73.23;98705.16;7380861;19;19918;-74
2023/04/18 01:05:25;;;;;;;13.05;8.88;;;;;;;9.89;72.66;98708.06;7379078;19;19922;-74
2023/04/18 01:07:57;;;;;;;13.85;9.27;;;;;;;9.85;73.04;98696.13;7382764;19;19922;-74
2023/04/18 01:10:24;;;;;;;13.63;8.85;;;;;;;9.86;73.32;98696.97;7380989;19;20644;-74
2023/04/18 01:13:11;;;;;;;17.50;10.75;;;;;;;9.85;72.70;98697.94;7382313;19;19922;-74
2023/04/18 01:15:40;;;;;;;12.98;10.02;;;;;;;9.90;72.87;98698.34;7380629;19;20240;-74
2023/04/18 01:18:08;;;;;;;15.85;10.90;;;;;;;9.83;72.27;98691.97;7386698;19;19919;-75
2023/04/18 01:20:37;;;;;;;14.35;9.13;;;;;;;9.81;72.72;98692.09;7379995;19;19927;-74
2023/04/18 01:23:04;;;;;;;13.38;9.02;;;;;;;9.84;72.93;98688.34;7384250;19;20364;-75
2023/04/18 01:25:33;;;;;;;15.45;9.73;;;;;;;9.72;72.97;98685.03;7380835;19;19983;-74
2023/04/18 01:28:01;;;;;;;15.05;10.10;;;;;;;9.70;72.96;98676.41;7381364;19;19918;-73
2023/04/18 01:30:28;;;;;;;13.13;9.60;;;;;;;9.71;72.92;98680.72;7379489;19;19923;-74
2023/04/18 01:32:57;;;;;;;13.88;10.30;;;;;;;9.62;73.23;98671.84;7385761;19;20255;-74
2023/04/18 01:35:25;;;;;;;13.80;9.75;;;;;;;9.56;73.02;98671.59;7380796;19;19925;-74
2023/04/18 01:37:55;;;;;;;15.25;11.65;;;;;;;9.59;73.25;98668.66;7386764;19;19938;-74
2023/04/18 01:40:22;;;;;;;16.23;10.00;;;;;;;9.59;73.02;98664.22;7384032;19;19918;-74
2023/04/18 01:42:49;;;;;;;13.50;10.10;;;;;;;9.60;73.15;98670.31;7383647;19;19978;-74
2023/04/18 01:45:18;;;;;;;15.60;10.07;;;;;;;9.59;73.52;98669.50;7383733;19;19939;-74
2023/04/18 01:47:45;;;;;;;14.23;9.40;;;;;;;9.55;73.82;98668.09;7376260;19;19938;-74
2023/04/18 01:50:12;;;;;;;19.13;10.27;;;;;;;9.55;73.96;98667.25;7381231;19;19914;-74
2023/04/18 01:52:41;;;;;;;16.90;10.60;;;;;;;9.54;73.81;98666.44;7379541;19;19918;-74
2023/04/18 01:55:08;;;;;;;14.90;9.40;;;;;;;9.49;73.95;98663.38;7386330;19;20340;-75
2023/04/18 01:57:35;;;;;;;18.35;12.65;;;;;;;9.47;73.91;98665.34;7377367;19;20287;-74
2023/04/18 02:00:06;;;;;;;14.68;10.43;;;;;;;9.42;74.00;98665.75;7383220;19;19906;-74
2023/04/18 02:02:42;;;;;;;16.40;11.18;;;;;;;9.38;73.75;98656.47;7380710;19;19915;-74
2023/04/18 02:05:09;;;;;;;15.23;9.75;;;;;;;9.28;73.71;98660.91;7379074;19;19930;-74
2023/04/18 02:07:37;;;;;;;15.85;10.32;;;;;;;9.21;74.07;98659.78;7375739;19;19934;-75
2023/04/18 02:10:05;;;;;;;18.35;11.90;;;;;;;9.09;74.16;98653.84;7381279;19;20462;-74
2023/04/18 02:12:33;;;;;;;18.27;11.85;;;;;;;9.10;74.04;98654.66;7379103;19;19918;-74
2023/04/18 02:14:59;;;;;;;15.48;10.32;;;;;;;9.02;74.09;98647.44;7381272;19;19922;-74
2023/04/18 02:17:27;;;;;;;14.00;10.60;;;;;;;8.98;74.44;98659.28;7381667;19;20269;-74
2023/04/18 02:19:54;;;;;;;16.63;10.77;;;;;;;9.00;74.51;98655.53;7379597;19;19926;-74
2023/04/18 02:22:20;;;;;;;18.05;10.88;;;;;;;8.97;74.85;98655.78;7383473;19;19939;-74
2023/04/18 02:24:47;;;;;;;16.90;9.57;;;;;;;8.96;74.97;98656.75;7377906;19;19935;-74
2023/04/18 02:27:14;;;;;;;17.20;10.35;;;;;;;8.86;74.87;98657.72;7379520;19;19929;-74
2023/04/18 02:29:41;;;;;;;16.80;10.50;;;;;;;8.88;75.22;98664.53;7378857;19;19914;-74
2023/04/18 02:32:08;;;;;;;18.60;11.23;;;;;;;8.88;74.88;98663.72;7379355;19;19947;-74
2023/04/18 02:34:35;;;;;;;18.33;11.80;;;;;;;8.87;75.00;98668.13;7378829;19;19928;-74
2023/04/18 02:37:03;;;;;;;17.13;10.48;;;;;;;8.91;75.00;98658.16;7385745;19;20352;-74
2023/04/18 02:39:30;;;;;;;16.40;10.45;;;;;;;8.91;75.16;98660.78;7381508;19;19986;-74
2023/04/18 02:41:57;;;;;;;16.70;10.57;;;;;;;8.93;75.15;98661.50;7388171;19;19930;-74
2023/04/18 02:44:24;;;;;;;23.40;13.68;;;;;;;8.92;74.59;98650.06;7391786;19;20265;-74
2023/04/18 02:46:51;;;;;;;16.90;10.07;;;;;;;8.89;74.69;98660.09;7384287;19;19914;-74
2023/04/18 02:49:18;;;;;;;17.40;11.82;;;;;;;8.82;74.79;98651.03;7388678;19;19918;-74
2023/04/18 02:51:45;;;;;;;17.95;11.25;;;;;;;8.82;75.07;98654.53;7381575;19;20147;-74
2023/04/18 02:54:15;;;;;;;17.83;10.25;;;;;;;8.82;75.13;98657.19;7390841;19;19942;-74
2023/04/18 02:56:56;;;;;;;17.40;11.02;;;;;;;8.74;74.73;98652.59;7382821;19;20027;-74
2023/04/18 02:59:43;;;;;;;16.13;9.85;;;;;;;8.76;74.88;98655.06;7378712;19;19943;-75
2023/04/18 03:02:30;;;;;;;18.70;10.40;;;;;;;8.76;75.08;98655.06;7386308;19;19919;-75
2023/04/18 03:05:05;;;;;;;17.08;11.02;;;;;;;8.82;75.40;98661.59;7388551;19;19943;-75
2023/04/18 03:07:33;;;;;;;16.90;11.13;;;;;;;8.84;75.30;98652.56;7385576;19;19915;-75
2023/04/18 03:09:59;;;;;;;18.25;10.88;;;;;;;8.83;75.43;98661.47;7390066;19;19926;-75
2023/04/18 03:12:31;;;;;;;18.13;12.73;;;;;;;8.86;75.11;98660.38;7383310;19;19918;-74
2023/04/18 03:14:59;;;;;;;18.55;11.40;;;;;;;8.85;75.22;98656.06;7383691;19;19927;-75
2023/04/18 03:17:26;;;;;;;17.52;11.25;;;;;;;8.84;75.09;98651.75;7387978;19;19929;-75
2023/04/18 03:19:53;;;;;;;16.83;10.63;;;;;;;8.86;75.16;98652.44;7384985;19;19922;-74
2023/04/18 03:22:21;;;;;;;16.73;10.57;;;;;;;8.84;75.00;98659.66;7388133;19;19931;-74
2023/04/18 03:24:56;;;;;;;18.08;11.15;;;;;;;8.89;75.05;98654.81;7387736;19;20041;-74
2023/04/18 03:27:37;;;;;;;21.17;10.82;;;;;;;8.87;74.95;98659.38;7382531;19;20368;-74
2023/04/18 03:30:05;;;;;;;17.75;10.60;;;;;;;8.91;75.05;98660.78;7383994;19;19919;-74
2023/04/18 03:32:33;;;;;;;17.75;10.82;;;;;;;8.89;74.83;98658.28;7382765;19;19926;-74
2023/04/18 03:35:01;;;;;;;18.65;11.10;;;;;;;8.86;74.52;98663.00;7386357;19;19922;-73
2023/04/18 03:37:28;;;;;;;21.15;11.65;;;;;;;8.76;74.68;98661.16;7387404;19;19925;-74
2023/04/18 03:39:56;;;;;;;20.40;11.30;;;;;;;8.87;74.75;98659.38;7386426;19;19922;-74
2023/04/18 03:42:26;;;;;;;17.90;10.30;;;;;;;8.89;74.62;98666.19;7387537;19;19914;-74
2023/04/18 03:44:52;;;;;;;15.35;10.35;;;;;;;8.94;74.54;98663.13;7383568;19;19918;-74
2023/04/18 03:47:20;;;;;;;18.90;10.50;;;;;;;8.91;74.94;98661.63;7387234;19;19922;-74
2023/04/18 03:49:53;;;;;;;15.77;10.43;;;;;;;8.96;74.64;98661.22;7380411;19;19914;-74
2023/04/18 03:52:21;;;;;;;17.50;10.23;;;;;;;8.99;74.67;98661.75;7382732;19;20013;-74
2023/04/18 03:54:48;;;;;;;16.77;10.55;;;;;;;9.01;74.65;98665.09;7381704;19;19926;-74
2023/04/18 03:57:18;;;;;;;18.15;11.77;;;;;;;9.02;74.76;98664.09;7387303;19;19911;-74
2023/04/18 03:59:44;;;;;;;17.33;11.73;;;;;;;9.03;74.79;98667.59;7382552;19;20389;-74
2023/04/18 04:02:13;;;;;;;15.65;10.70;;;;;;;9.02;74.91;98666.75;7380559;19;19914;-74
2023/04/18 04:04:41;;;;;;;16.25;11.85;;;;;;;9.00;74.32;98662.56;7379268;19;20024;-74
2023/04/18 04:07:09;;;;;;;16.27;10.95;;;;;;;8.98;73.96;98665.38;7385350;19;19957;-74
2023/04/18 04:09:36;;;;;;;18.98;12.38;;;;;;;8.98;74.31;98672.47;7385060;19;19918;-74
2023/04/18 04:12:04;;;;;;;18.20;11.25;;;;;;;8.97;74.36;98670.78;7384905;19;19944;-74
2023/04/18 04:14:32;;;;;;;15.48;10.52;;;;;;;8.98;74.35;98669.81;7383516;19;19935;-74
2023/04/18 04:16:59;;;;;;;17.25;12.10;;;;;;;9.01;74.58;98672.19;7386062;19;19943;-74
2023/04/18 04:19:28;;;;;;;17.40;10.38;;;;;;;8.98;74.66;98667.19;7381834;19;19918;-74
2023/04/18 04:22:08;;;;;;;19.02;11.10;;;;;;;8.98;74.57;98667.19;7383738;19;20356;-74
2023/04/18 04:24:37;;;;;;;15.93;11.63;;;;;;;9.03;74.58;98659.69;7384824;19;20240;-74
2023/04/18 04:27:05;;;;;;;16.45;12.07;;;;;;;9.05;74.64;98665.63;7382913;19;20241;-75
2023/04/18 04:29:34;;;;;;;17.73;11.30;;;;;;;9.06;74.68;98664.69;7383120;19;19922;-75
2023/04/18 04:32:04;;;;;;;19.77;10.52;;;;;;;9.03;74.62;98664.97;7383531;19;19911;-75
2023/04/18 04:34:35;;;;;;;18.55;11.65;;;;;;;9.08;74.85;98669.81;7381618;19;19918;-74
2023/04/18 04:37:04;;;;;;;15.55;9.77;;;;;;;9.09;74.80;98667.03;7384502;19;19922;-74
2023/04/18 04:39:38;;;;;;;17.20;10.85;;;;;;;9.11;74.82;98665.09;7383946;19;20042;-74
2023/04/18 04:42:24;;;;;;;15.02;10.30;;;;;;;9.13;75.01;98668.41;7385298;19;19915;-74
2023/04/18 04:45:01;;;;;;;13.88;9.43;;;;;;;9.16;75.06;98667.31;7379878;19;19978;-74
2023/04/18 04:47:28;;;;;;;18.63;12.15;;;;;;;9.14;74.54;98664.81;7384334;19;19949;-74
2023/04/18 04:49:54;;;;;;;15.55;10.85;;;;;;;9.15;74.27;98669.13;7378673;19;19933;-74
2023/04/18 04:52:21;;;;;;;20.83;11.77;;;;;;;9.16;74.33;98673.44;7384533;19;19922;-74
2023/04/18 04:54:50;;;;;;;19.08;11.05;;;;;;;9.05;73.65;98672.72;7384714;19;19942;-75
2023/04/18 04:57:18;;;;;;;14.00;9.05;;;;;;;9.08;74.01;98672.44;7385034;19;19922;-73
2023/04/18 04:59:48;;;;;;;17.80;10.55;;;;;;;9.10;74.27;98667.88;7378508;19;19919;-72
2023/04/18 05:02:15;;;;;;;16.10;9.75;;;;;;;9.09;73.93;98663.56;7379385;19;19948;-74
2023/04/18 05:04:42;;;;;;;13.95;9.75;;;;;;;9.12;74.28;98679.94;7382345;19;20621;-74
2023/04/18 05:07:09;;;;;;;16.75;11.27;;;;;;;9.11;74.36;98680.94;7384403;19;19943;-74
2023/04/18 05:09:36;;;;;;;14.95;11.35;;;;;;;9.17;74.23;98679.53;7381285;19;19943;-74
2023/04/18 05:12:03;;;;;;;15.93;11.43;;;;;;;9.20;73.72;98681.91;7384319;19;20378;-74
2023/04/18 05:14:30;;;;;;;16.75;11.25;;;;;;;9.23;73.87;98678.97;7386780;19;19957;-74
2023/04/18 05:16:56;;;;;;;15.98;11.23;;;;;;;9.11;73.72;98675.66;7381037;19;19922;-74
2023/04/18 05:19:23;;;;;;;15.20;10.32;;;;;;;9.19;73.91;98680.25;7385724;19;19946;-74
2023/04/18 05:21:50;;;;;;;14.80;11.23;;;;;;;9.24;73.58;98685.91;7380389;19;19946;-74
2023/04/18 05:24:17;;;;;;;19.15;11.82;;;;;;;9.19;73.22;98683.72;7385375;19;19922;-74
2023/04/18 05:26:43;;;;;;;18.80;11.95;;;;;;;9.12;73.46;98679.94;7385355;19;19914;-74
2023/04/18 05:29:10;;;;;;;16.50;11.73;;;;;;;9.16;73.58;98686.63;7386857;19;19914;-74
2023/04/18 05:31:37;;;;;;;16.15;11.07;;;;;;;9.18;73.69;98681.19;7379854;19;19959;-74
2023/04/18 05:34:04;;;;;;;18.95;12.93;;;;;;;9.11;74.15;98680.94;7383388;19;20425;-74
2023/04/18 05:36:31;;;;;;;17.85;10.80;;;;;;;9.17;73.91;98683.00;7386877;19;20612;-74
2023/04/18 05:38:57;;;;;;;17.50;11.23;;;;;;;9.24;74.15;98685.91;7379449;19;19951;-74
2023/04/18 05:41:24;;;;;;;17.55;11.15;;;;;;;9.14;73.68;98683.28;7382987;19;19922;-74
2023/04/18 05:43:51;;;;;;;15.57;10.45;;;;;;;9.20;73.39;98690.66;7380747;19;19918;-74
2023/04/18 05:46:30;;;;;;;17.75;12.20;;;;;;;9.24;73.11;98693.84;7385452;19;19919;-74
2023/04/18 05:48:57;;;;;;;17.38;11.70;;;;;;;9.30;73.55;98690.66;7379197;19;19922;-74
2023/04/18 05:51:25;;;;;;;18.63;11.95;;;;;;;9.28;73.41;98691.75;7380754;19;19918;-74
2023/04/18 05:53:51;;;;;;;16.13;9.73;;;;;;;9.32;73.57;98701.91;7381328;19;19963;-74
2023/04/18 05:56:18;;;;;;;16.80;11.32;;;;;;;9.31;73.43;98696.75;7379657;19;19954;-74
2023/04/18 05:58:46;;;;;;;15.90;10.85;;;;;;;9.31;73.55;98694.13;7376425;19;19926;-74
2023/04/18 06:01:13;;;;;;;17.65;10.25;;;;;;;9.34;73.60;98699.13;7381091;19;19960;-74
2023/04/18 06:03:40;;;;;;;17.40;10.68;;;;;;;9.36;73.61;98702.47;7380402;19;20358;-74
2023/04/18 06:06:07;;;;;;;21.80;12.63;;;;;;;9.30;73.81;98708.31;7380029;19;19947;-74
2023/04/18 06:08:34;;;;;;;16.00;10.32;;;;;;;9.40;73.77;98709.09;7379098;19;19911;-74
2023/04/18 06:11:01;;;;;;;16.25;10.75;;;;;;;9.42;73.67;98702.72;7377941;19;19930;-74
2023/04/18 06:13:27;;;;;;;16.85;10.75;;;;;;;9.45;73.58;98702.47;7382207;19;19919;-74
2023/04/18 06:15:54;;;;;;;17.25;10.68;;;;;;;9.39;73.05;98707.47;7380050;19;19919;-73
2023/04/18 06:18:21;;;;;;;17.20;9.98;;;;;;;9.41;72.96;98708.97;7390336;19;19925;-74
2023/04/18 06:20:48;;;;;;;14.75;10.45;;;;;;;9.39;73.12;98713.56;7385993;19;20288;-74
2023/04/18 06:23:15;;;;;;;17.48;10.55;;;;;;;9.37;72.76;98710.25;7388159;19;19918;-74
2023/04/18 06:25:42;;;;;;;15.13;10.25;;;;;;;9.33;72.88;98714.13;7384229;19;19926;-74
2023/04/18 06:28:09;;;;;;;17.80;11.90;;;;;;;9.43;73.18;98719.41;7384257;19;19966;-74
2023/04/18 06:30:36;;;;;;;15.93;10.20;;;;;;;9.31;72.88;98718.72;7389347;19;19935;-74
2023/04/18 06:33:02;;;;;;;16.27;10.88;;;;;;;8.99;72.56;98716.34;7387235;19;19923;-74
2023/04/18 06:35:30;;;;;;;16.08;11.13;;;;;;;9.41;72.96;98716.06;7387795;19;19930;-73
2023/04/18 06:37:56;;;;;;;17.60;12.32;;;;;;;9.53;72.99;98714.09;7380685;19;20313;-74
2023/04/18 06:40:23;;;;;;;18.80;12.45;;;;;;;9.61;72.84;98711.59;7388271;19;20240;-74
2023/04/18 06:42:50;;;;;;;16.63;11.50;;;;;;;9.62;72.84;98721.19;7384251;19;19922;-74
2023/04/18 06:45:17;;;;;;;16.75;10.85;;;;;;;9.75;72.97;98723.56;7391885;19;19959;-74
2023/04/18 06:47:44;;;;;;;15.45;9.93;;;;;;;9.89;72.92;98720.44;7387056;19;19919;-74
2023/04/18 06:50:11;;;;;;;14.23;9.75;;;;;;;9.94;73.05;98726.16;7383975;19;19964;-74
2023/04/18 06:52:42;;;;;;;15.55;10.27;;;;;;;10.11;72.83;98727.22;7386183;19;19952;-74
2023/04/18 06:55:13;;;;;;;16.77;9.98;;;;;;;10.19;72.55;98714.13;7391780;19;19922;-74
2023/04/18 06:57:40;;;;;;;15.63;9.43;;;;;;;10.29;72.31;98719.38;7385811;19;19918;-74
2023/04/18 07:00:08;;;;;;;15.75;10.88;;;;;;;10.42;72.49;98727.81;7387783;19;19915;-74
2023/04/18 07:02:36;;;;;;;14.75;9.85;;;;;;;10.45;72.20;98718.75;7391508;19;19922;-74
2023/04/18 07:05:04;;;;;;;13.52;9.38;;;;;;;10.48;71.90;98718.47;7387762;19;19978;-74
2023/04/18 07:07:32;;;;;;;16.35;9.75;;;;;;;10.44;71.23;98715.28;7389373;19;19955;-75
2023/04/18 07:09:59;;;;;;;16.67;10.55;;;;;;;10.60;72.04;98724.41;7386222;19;19923;-74
2023/04/18 07:12:26;;;;;;;19.90;12.18;;;;;;;10.72;71.85;98728.53;7387583;19;20378;-75
2023/04/18 07:14:53;;;;;;;13.68;9.00;;;;;;;10.64;71.58;98725.78;7385445;19;20630;-74
2023/04/18 07:17:20;;;;;;;15.32;9.93;;;;;;;10.63;71.08;98724.09;7386736;19;19919;-74
2023/04/18 07:19:47;;;;;;;15.48;10.15;;;;;;;10.62;71.29;98725.09;7384726;19;20190;-73
2023/04/18 07:22:14;;;;;;;17.08;11.00;;;;;;;10.58;70.77;98721.88;7384564;19;19943;-74
2023/04/18 07:24:41;;;;;;;18.33;10.75;;;;;;;10.62;70.88;98730.38;7385310;19;20285;-74
2023/04/18 07:27:08;;;;;;;16.30;10.15;;;;;;;10.76;71.38;98728.06;7388515;19;19947;-76
2023/04/18 07:29:35;;;;;;;16.45;10.20;;;;;;;10.91;70.79;98720.44;7388910;19;19926;-75
2023/04/18 07:32:02;;;;;;;14.45;10.45;;;;;;;10.97;70.65;98729.59;7380743;19;19917;-75
2023/04/18 07:34:29;;;;;;;16.40;10.15;;;;;;;11.10;70.87;98723.94;7388184;19;19919;-74
2023/04/18 07:36:56;;;;;;;17.98;10.98;;;;;;;11.05;69.81;98724.38;7387344;19;19918;-74
2023/04/18 07:39:23;;;;;;;14.90;10.20;;;;;;;11.06;70.24;98727.88;7388740;19;20535;-75
2023/04/18 07:41:50;;;;;;;14.77;10.32;;;;;;;11.14;70.19;98723.50;7382559;19;19923;-74
2023/04/18 07:44:17;;;;;;;17.15;10.18;;;;;;;11.16;70.65;98736.56;7384552;19;19986;-74
2023/04/18 07:46:44;;;;;;;13.98;9.73;;;;;;;11.10;70.35;98729.25;7385364;19;19941;-75
2023/04/18 07:49:10;;;;;;;16.85;10.05;;;;;;;11.27;70.56;98730.22;7385017;19;19926;-75
2023/04/18 07:51:38;;;;;;;16.67;10.82;;;;;;;11.42;71.09;98726.88;7389291;19;19910;-75
2023/04/18 07:54:04;;;;;;;16.75;10.52;;;;;;;11.60;70.58;98721.56;7386165;19;19922;-75
2023/04/18 07:56:31;;;;;;;14.95;9.73;;;;;;;11.83;70.88;98724.56;7388459;19;19922;-75
2023/04/18 07:58:58;;;;;;;16.52;9.95;;;;;;;12.03;69.78;98725.25;7383062;19;19926;-75
2023/04/18 08:01:26;;;;;;;14.85;9.65;;;;;;;12.22;68.89;98726.84;7388624;19;19928;-75
2023/04/18 08:03:53;;;;;;;12.75;8.85;;;;;;;12.38;68.59;98723.44;7386813;19;19918;-75
2023/04/18 08:06:20;;;;;;;13.10;8.95;;;;;;;12.42;67.96;98721.28;7384581;19;19986;-75
2023/04/18 08:08:47;;;;;;;15.55;10.20;;;;;;;12.53;68.10;98723.66;7385260;19;19922;-75
2023/04/18 08:11:14;;;;;;;16.40;10.80;;;;;;;12.42;66.80;98722.13;7388388;19;19925;-74
2023/04/18 08:13:40;;;;;;;17.67;10.18;;;;;;;12.40;67.52;98723.25;7386379;19;19946;-75
2023/04/18 08:16:08;;;;;;;14.32;9.50;;;;;;;12.44;66.68;98722.78;7386406;19;19918;-75
2023/04/18 08:18:35;;;;;;;14.82;9.13;;;;;;;12.32;66.66;98731.19;7388776;19;19938;-75
2023/04/18 08:21:01;;;;;;;12.77;9.15;;;;;;;12.48;68.38;98728.59;7381281;19;19919;-75
2023/04/18 08:23:28;;;;;;;15.70;11.25;;;;;;;12.66;68.00;98729.34;7389731;19;20285;-75
2023/04/18 08:25:55;;;;;;;15.43;9.75;;;;;;;12.77;66.54;98733.56;7387558;19;19957;-75
2023/04/18 08:28:22;;;;;;;13.82;9.90;;;;;;;12.86;67.19;98739.72;7386758;19;19922;-75
2023/04/18 08:30:50;;;;;;;13.77;10.75;;;;;;;12.93;66.58;98735.44;7382535;19;19943;-75
2023/04/18 08:33:17;;;;;;;14.82;10.73;;;;;;;13.09;66.05;98732.81;7384766;19;19974;-75
2023/04/18 08:35:44;;;;;;;16.23;9.98;;;;;;;13.10;64.54;98737.09;7383840;19;19922;-75
2023/04/18 08:38:12;;;;;;;12.85;9.48;;;;;;;13.29;65.46;98749.28;7383026;19;19922;-75
2023/04/18 08:40:38;;;;;;;13.60;9.48;;;;;;;13.24;65.11;98745.44;7388734;19;19914;-75
2023/04/18 08:43:08;;;;;;;15.23;9.95;;;;;;;13.24;64.85;98745.44;7383902;19;19918;-75
2023/04/18 08:45:35;;;;;;;14.75;9.15;;;;;;;13.33;64.63;98741.84;7387634;19;19977;-75
2023/04/18 08:48:02;;;;;;;15.27;11.52;;;;;;;13.55;65.76;98743.00;7379034;19;20856;-75
2023/04/18 08:50:29;;;;;;;12.27;9.18;;;;;;;13.68;64.80;98739.88;7386589;19;19925;-75
2023/04/18 08:53:00;;;;;;;15.30;12.68;;;;;;;13.66;63.91;98744.50;7383054;19;20290;-75
2023/04/18 08:55:26;;;;;;;12.93;9.13;;;;;;;13.81;65.39;98756.13;7385080;19;19918;-74
2023/04/18 08:57:54;;;;;;;13.43;10.77;;;;;;;13.84;64.20;98746.00;7376944;19;19921;-74
2023/04/18 09:00:22;;;;;;;12.02;8.75;;;;;;;13.78;64.29;98745.84;7383032;19;19926;-74
2023/04/18 09:02:53;;;;;;;12.95;9.45;;;;;;;13.57;63.94;98755.13;7381554;19;19951;-74
2023/04/18 09:05:23;;;;;;;14.57;10.35;;;;;;;13.36;63.50;98752.13;7383490;19;19955;-75
2023/04/18 09:07:54;;;;;;;16.95;10.50;;;;;;;13.19;64.37;98745.91;7387327;19;19962;-74
2023/04/18 09:10:31;;;;;;;14.32;9.45;;;;;;;13.02;64.68;98755.69;7383124;19;20821;-74
2023/04/18 09:13:01;;;;;;;13.23;8.77;;;;;;;13.01;65.70;98754.03;7381016;19;20352;-74
2023/04/18 09:15:29;;;;;;;14.50;9.45;;;;;;;12.98;66.37;98757.03;7386066;19;19930;-74
2023/04/18 09:17:58;;;;;;;13.55;9.65;;;;;;;12.99;66.79;98752.53;7386870;19;19923;-74
2023/04/18 09:20:33;;;;;;;13.82;9.35;;;;;;;13.12;66.45;98761.69;7380524;19;19938;-76
2023/04/18 09:23:09;;;;;;;13.15;8.90;;;;;;;13.03;64.99;98757.34;7386436;19;19922;-73
2023/04/18 09:25:43;;;;;;;14.57;9.20;;;;;;;13.08;65.96;98755.03;7388970;19;19914;-74
2023/04/18 09:28:28;;;;;;;16.40;9.27;;;;;;;13.14;64.68;98759.72;7383596;19;19922;-75
2023/04/18 09:30:57;;;;;;;16.73;9.60;;;;;;;13.36;65.70;98757.44;7383567;19;19929;-75
2023/04/18 09:33:32;;;;;;;12.07;9.45;;;;;;;13.41;64.98;98759.63;7385308;19;19922;-75
2023/04/18 09:36:27;;;;;;;13.95;9.63;;;;;;;13.50;64.04;98756.78;7383641;19;19973;-75
2023/04/18 09:38:54;;;;;;;15.02;9.30;;;;;;;13.75;64.44;98752.31;7382398;19;19925;-75
2023/04/18 09:41:22;;;;;;;14.20;9.13;;;;;;;14.09;64.39;98761.13;7385593;19;19926;-74
2023/04/18 09:44:07;;;;;;;13.57;9.25;;;;;;;14.13;62.73;98755.25;7382394;19;20360;-75
2023/04/18 09:46:37;;;;;;;10.88;7.75;;;;;;;14.26;62.36;98760.06;7387831;19;19974;-75
2023/04/18 09:49:03;;;;;;;11.70;7.97;;;;;;;14.24;63.30;98762.06;7388350;19;19918;-74
2023/04/18 09:51:30;;;;;;;10.00;7.75;;;;;;;14.16;62.36;98752.25;7388432;19;19922;-74
2023/04/18 09:53:57;;;;;;;12.77;8.45;;;;;;;14.37;63.36;98756.22;7383603;19;19919;-75
2023/04/18 09:56:27;;;;;;;10.63;7.40;;;;;;;14.51;62.65;98758.19;7387899;19;19990;-74
2023/04/18 09:59:15;;;;;;;12.13;8.43;;;;;;;14.39;61.86;98751.56;7387871;19;19951;-75
2023/04/18 10:01:47;;;;;;;14.38;8.30;;;;;;;14.36;61.75;98755.38;7389071;19;19926;-74
2023/04/18 10:04:15;;;;;;;13.75;7.80;;;;;;;14.31;61.85;98757.72;7387801;19;20344;-75
2023/04/18 10:06:44;;;;;;;12.00;8.32;;;;;;;14.32;62.76;98748.72;7391028;19;19922;-75
2023/04/18 10:09:12;;;;;;;11.63;8.30;;;;;;;14.41;63.04;98755.72;7390407;19;20603;-75
2023/04/18 10:11:39;;;;;;;11.40;7.85;;;;;;;14.46;61.91;98752.53;7387933;19;20390;-76
2023/04/18 10:14:09;;;;;;;13.77;9.13;;;;;;;14.43;62.14;98750.22;7384011;19;20428;-74
2023/04/18 10:16:37;;;;;;;11.25;7.72;;;;;;;14.44;60.92;98751.88;7388256;19;19918;-75
2023/04/18 10:19:22;;;;;;;12.23;9.38;;;;;;;14.61;61.69;98742.03;7381161;19;20536;-75
2023/04/18 10:21:59;;;;;;;10.45;6.93;;;;;;;14.76;61.65;98742.13;7385048;19;19926;-75
2023/04/18 10:24:44;;;;;;;11.35;8.40;;;;;;;14.57;59.99;98738.88;7391829;19;19923;-75
2023/04/18 10:27:11;;;;;;;10.32;7.35;;;;;;;14.71;61.39;98742.66;7390906;19;19918;-74
2023/04/18 10:29:51;;;;;;;9.95;7.28;;;;;;;14.64;60.77;98731.03;7391401;19;19933;-75
2023/04/18 10:32:21;;;;;;;10.82;7.25;;;;;;;14.77;61.89;98735.78;7388294;19;20534;-74
2023/04/18 10:34:49;;;;;;;9.95;7.18;;;;;;;14.79;62.84;98733.78;7383756;19;19942;-75
2023/04/18 10:37:17;;;;;;;12.05;8.40;;;;;;;14.63;59.12;98735.53;7390117;19;19919;-77
2023/04/18 10:39:57;;;;;;;10.07;7.50;;;;;;;14.68;61.70;98732.34;7392083;19;19930;-76
2023/04/18 10:42:59;;;;;;;9.85;6.38;;;;;;;14.71;61.71;98732.81;7390644;19;19925;-75
2023/04/18 10:45:28;;;;;;;9.02;6.50;;;;;;;14.73;62.25;98737.16;7386240;19;19955;-75
2023/04/18 10:48:24;;;;;;;8.23;6.30;;;;;;;14.64;60.98;98729.22;7389879;19;20656;-76
2023/04/18 10:51:17;;;;;;;9.85;6.50;;;;;;;14.77;61.94;98734.00;7380804;19;19919;-75
2023/04/18 10:53:51;;;;;;;8.45;6.30;;;;;;;14.58;61.81;98721.91;7389792;19;19954;-75
2023/04/18 10:56:17;;;;;;;9.32;6.95;;;;;;;14.80;62.17;98722.16;7389950;19;19921;-75
2023/04/18 10:58:54;;;;;;;9.27;6.53;;;;;;;14.99;61.42;98716.38;7386777;19;19943;-75
2023/04/18 11:01:26;;;;;;;8.23;6.03;;;;;;;15.20;61.27;98721.06;7385115;19;19921;-75
2023/04/18 11:03:58;;;;;;;10.40;7.38;;;;;;;15.11;60.30;98716.78;7388870;19;19922;-74
2023/04/18 11:06:26;;;;;;;8.02;6.18;;;;;;;15.19;60.17;98713.25;7385501;19;19958;-74
2023/04/18 11:09:11;;;;;;;9.27;6.13;;;;;;;15.20;60.04;98709.59;7384216;19;19921;-75
2023/04/18 11:11:37;;;;;;;11.88;6.47;;;;;;;15.26;60.94;98703.53;7387941;19;19922;-73
2023/04/18 11:14:04;;;;;;;7.88;5.88;;;;;;;15.01;59.12;98695.72;7386314;19;19930;-73
2023/04/18 11:16:32;;;;;;;7.05;5.28;;;;;;;15.09;60.35;98697.50;7389635;19;19929;-73
2023/04/18 11:18:59;;;;;;;8.05;7.25;;;;;;;14.97;60.51;98696.25;7385251;19;20268;-73
2023/04/18 11:21:27;;;;;;;8.15;6.35;;;;;;;14.88;61.23;98706.13;7385212;19;19922;-73
2023/04/18 11:23:57;;;;;;;8.38;5.68;;;;;;;14.58;60.11;98705.09;7386822;19;19910;-74
2023/04/18 11:26:25;;;;;;;8.80;5.65;;;;;;;14.50;61.70;98706.75;7385442;19;20384;-73
2023/04/18 11:28:56;;;;;;;6.32;5.22;;;;;;;14.54;62.83;98707.28;7383176;19;19915;-73
2023/04/18 11:31:23;;;;;;;7.47;6.63;;;;;;;14.68;63.23;98703.06;7384868;19;20252;-73
2023/04/18 11:33:50;;;;;;;8.43;5.93;;;;;;;14.70;62.62;98706.38;7385545;19;20579;-74
2023/04/18 11:36:17;;;;;;;8.68;6.70;;;;;;;14.51;61.94;98694.28;7388525;19;19922;-73